Spring Creek, South Dakota
Current Conditions -  °F | °C
As of 1:52 AM on Tuesday 21 Oct 2014 (Local Time) from KVTN Reporting Station
Clear Clear  
Wind Chill: 55°   Ceiling: Unl
Heat Index: 55°   Visibility: 10mi
Dew Point: 39°   Wind: 12mph
Humidity: 55%   Direction: 190°S
Pressure: 29.97"   Gusts: NA
Location:  43.1381°N, 100.965°W
Report Text: KVTN 210652Z AUTO 19010KT 10SM CLR 13/04 A2997 RMK AO2 SLP139 T01280039
Loading
Personal Weather Stations






























Interactive Weather Map New forecast layout! Learn more

10-Day Weather Forecast

Advertisements
Track Severe Weather on mobile